sensor_id;sensor_type;location;lat;lon;timestamp;P1;durP1;ratioP1;P2;durP2;ratioP2
23472;SDS011;11909;52.516;13.564;2022-08-07T00:00:37;6.85;;;2.70;;
23472;SDS011;11909;52.516;13.564;2022-08-07T00:03:03;4.82;;;2.53;;
23472;SDS011;11909;52.516;13.564;2022-08-07T00:05:31;3.78;;;2.08;;
23472;SDS011;11909;52.516;13.564;2022-08-07T00:07:57;5.53;;;2.47;;
23472;SDS011;11909;52.516;13.564;2022-08-07T00:10:24;2.92;;;1.90;;
23472;SDS011;11909;52.516;13.564;2022-08-07T00:12:50;3.88;;;1.77;;
23472;SDS011;11909;52.516;13.564;2022-08-07T00:15:17;2.28;;;1.70;;
23472;SDS011;11909;52.516;13.564;2022-08-07T00:17:43;4.80;;;2.00;;
23472;SDS011;11909;52.516;13.564;2022-08-07T00:20:09;5.68;;;2.10;;
23472;SDS011;11909;52.516;13.564;2022-08-07T00:22:38;2.45;;;1.65;;
23472;SDS011;11909;52.516;13.564;2022-08-07T00:25:05;3.50;;;1.77;;
23472;SDS011;11909;52.516;13.564;2022-08-07T00:27:33;2.53;;;1.65;;
23472;SDS011;11909;52.516;13.564;2022-08-07T00:29:59;2.33;;;1.50;;
23472;SDS011;11909;52.516;13.564;2022-08-07T00:32:26;3.58;;;1.60;;
23472;SDS011;11909;52.516;13.564;2022-08-07T00:34:52;4.43;;;2.00;;
23472;SDS011;11909;52.516;13.564;2022-08-07T00:37:19;2.65;;;1.92;;
23472;SDS011;11909;52.516;13.564;2022-08-07T00:39:47;2.97;;;1.90;;
23472;SDS011;11909;52.516;13.564;2022-08-07T00:42:13;2.83;;;2.05;;
23472;SDS011;11909;52.516;13.564;2022-08-07T00:44:40;4.28;;;1.77;;
23472;SDS011;11909;52.516;13.564;2022-08-07T00:47:06;3.13;;;1.90;;
23472;SDS011;11909;52.516;13.564;2022-08-07T00:49:33;3.75;;;1.83;;
23472;SDS011;11909;52.516;13.564;2022-08-07T00:51:59;2.78;;;1.75;;
23472;SDS011;11909;52.516;13.564;2022-08-07T00:54:26;2.92;;;1.85;;
23472;SDS011;11909;52.516;13.564;2022-08-07T00:56:54;4.88;;;2.10;;
23472;SDS011;11909;52.516;13.564;2022-08-07T00:59:20;3.67;;;1.55;;
23472;SDS011;11909;52.516;13.564;2022-08-07T01:01:47;4.25;;;1.70;;
23472;SDS011;11909;52.516;13.564;2022-08-07T01:04:14;2.40;;;1.67;;
23472;SDS011;11909;52.516;13.564;2022-08-07T01:06:41;2.90;;;1.83;;
23472;SDS011;11909;52.516;13.564;2022-08-07T01:09:09;2.08;;;1.67;;
23472;SDS011;11909;52.516;13.564;2022-08-07T01:11:35;8.88;;;2.20;;
23472;SDS011;11909;52.516;13.564;2022-08-07T01:14:04;5.38;;;2.75;;
23472;SDS011;11909;52.516;13.564;2022-08-07T01:16:32;4.55;;;2.08;;
23472;SDS011;11909;52.516;13.564;2022-08-07T01:18:59;4.53;;;1.77;;
23472;SDS011;11909;52.516;13.564;2022-08-07T01:21:26;4.00;;;1.98;;
23472;SDS011;11909;52.516;13.564;2022-08-07T01:23:53;2.40;;;1.80;;
23472;SDS011;11909;52.516;13.564;2022-08-07T01:26:21;4.15;;;1.90;;
23472;SDS011;11909;52.516;13.564;2022-08-07T01:28:49;3.03;;;1.80;;
23472;SDS011;11909;52.516;13.564;2022-08-07T01:31:17;7.82;;;1.80;;
23472;SDS011;11909;52.516;13.564;2022-08-07T01:33:46;2.08;;;1.63;;
23472;SDS011;11909;52.516;13.564;2022-08-07T01:36:12;3.38;;;2.00;;
23472;SDS011;11909;52.516;13.564;2022-08-07T01:38:40;3.65;;;1.73;;
23472;SDS011;11909;52.516;13.564;2022-08-07T01:41:08;2.60;;;1.80;;
23472;SDS011;11909;52.516;13.564;2022-08-07T01:43:36;4.65;;;1.98;;
23472;SDS011;11909;52.516;13.564;2022-08-07T01:46:03;3.65;;;1.90;;
23472;SDS011;11909;52.516;13.564;2022-08-07T01:48:30;3.60;;;1.98;;
23472;SDS011;11909;52.516;13.564;2022-08-07T01:50:57;5.03;;;1.80;;
23472;SDS011;11909;52.516;13.564;2022-08-07T01:53:26;2.78;;;1.65;;
23472;SDS011;11909;52.516;13.564;2022-08-07T01:55:57;3.75;;;1.77;;
23472;SDS011;11909;52.516;13.564;2022-08-07T01:58:28;4.15;;;1.88;;
23472;SDS011;11909;52.516;13.564;2022-08-07T02:00:57;8.68;;;2.35;;
23472;SDS011;11909;52.516;13.564;2022-08-07T02:03:27;4.35;;;1.63;;
23472;SDS011;11909;52.516;13.564;2022-08-07T02:08:28;4.05;;;2.00;;
23472;SDS011;11909;52.516;13.564;2022-08-07T02:11:00;2.95;;;1.75;;
23472;SDS011;11909;52.516;13.564;2022-08-07T02:13:28;3.47;;;1.65;;
23472;SDS011;11909;52.516;13.564;2022-08-07T02:15:57;2.10;;;1.70;;
23472;SDS011;11909;52.516;13.564;2022-08-07T02:18:27;2.97;;;2.00;;
23472;SDS011;11909;52.516;13.564;2022-08-07T02:20:56;6.00;;;1.80;;
23472;SDS011;11909;52.516;13.564;2022-08-07T02:23:25;4.20;;;2.03;;
23472;SDS011;11909;52.516;13.564;2022-08-07T02:25:53;4.60;;;2.20;;
23472;SDS011;11909;52.516;13.564;2022-08-07T02:28:24;4.80;;;2.00;;
23472;SDS011;11909;52.516;13.564;2022-08-07T02:30:53;2.53;;;1.73;;
23472;SDS011;11909;52.516;13.564;2022-08-07T02:33:20;3.25;;;1.63;;
23472;SDS011;11909;52.516;13.564;2022-08-07T02:35:49;2.60;;;1.60;;
23472;SDS011;11909;52.516;13.564;2022-08-07T02:38:17;2.92;;;1.92;;
23472;SDS011;11909;52.516;13.564;2022-08-07T02:40:47;4.68;;;1.90;;
23472;SDS011;11909;52.516;13.564;2022-08-07T02:43:14;5.30;;;2.00;;
23472;SDS011;11909;52.516;13.564;2022-08-07T02:45:43;5.38;;;2.05;;
23472;SDS011;11909;52.516;13.564;2022-08-07T02:48:12;2.88;;;1.85;;
23472;SDS011;11909;52.516;13.564;2022-08-07T02:50:40;5.03;;;1.92;;
23472;SDS011;11909;52.516;13.564;2022-08-07T02:53:09;2.58;;;1.42;;
23472;SDS011;11909;52.516;13.564;2022-08-07T02:55:41;3.33;;;2.00;;
23472;SDS011;11909;52.516;13.564;2022-08-07T02:58:13;1.70;;;1.60;;
23472;SDS011;11909;52.516;13.564;2022-08-07T03:00:46;3.88;;;1.38;;
23472;SDS011;11909;52.516;13.564;2022-08-07T03:03:15;3.72;;;1.98;;
23472;SDS011;11909;52.516;13.564;2022-08-07T03:05:44;2.90;;;1.77;;
23472;SDS011;11909;52.516;13.564;2022-08-07T03:08:11;1.40;;;1.30;;
23472;SDS011;11909;52.516;13.564;2022-08-07T03:10:38;2.22;;;1.60;;
23472;SDS011;11909;52.516;13.564;2022-08-07T03:13:05;3.15;;;1.75;;
23472;SDS011;11909;52.516;13.564;2022-08-07T03:15:32;2.97;;;1.52;;
23472;SDS011;11909;52.516;13.564;2022-08-07T03:18:01;2.38;;;1.58;;
23472;SDS011;11909;52.516;13.564;2022-08-07T03:20:27;5.35;;;1.52;;
23472;SDS011;11909;52.516;13.564;2022-08-07T03:22:54;2.45;;;1.52;;
23472;SDS011;11909;52.516;13.564;2022-08-07T03:25:23;2.78;;;1.60;;
23472;SDS011;11909;52.516;13.564;2022-08-07T03:27:52;4.60;;;1.65;;
23472;SDS011;11909;52.516;13.564;2022-08-07T03:30:20;1.80;;;1.50;;
23472;SDS011;11909;52.516;13.564;2022-08-07T03:32:48;2.47;;;1.63;;
23472;SDS011;11909;52.516;13.564;2022-08-07T03:35:18;3.90;;;1.63;;
23472;SDS011;11909;52.516;13.564;2022-08-07T03:37:50;2.80;;;1.85;;
23472;SDS011;11909;52.516;13.564;2022-08-07T03:42:46;3.83;;;1.75;;
23472;SDS011;11909;52.516;13.564;2022-08-07T03:45:13;3.00;;;1.55;;
23472;SDS011;11909;52.516;13.564;2022-08-07T03:47:40;2.97;;;1.60;;
23472;SDS011;11909;52.516;13.564;2022-08-07T03:50:07;1.45;;;1.35;;
23472;SDS011;11909;52.516;13.564;2022-08-07T03:52:35;2.00;;;1.75;;
23472;SDS011;11909;52.516;13.564;2022-08-07T03:55:03;5.07;;;2.00;;
23472;SDS011;11909;52.516;13.564;2022-08-07T03:57:30;4.93;;;1.67;;
23472;SDS011;11909;52.516;13.564;2022-08-07T03:59:58;4.28;;;1.70;;
23472;SDS011;11909;52.516;13.564;2022-08-07T04:02:24;4.88;;;1.67;;
23472;SDS011;11909;52.516;13.564;2022-08-07T04:04:52;2.95;;;1.77;;
23472;SDS011;11909;52.516;13.564;2022-08-07T04:07:18;3.90;;;1.70;;
23472;SDS011;11909;52.516;13.564;2022-08-07T04:09:46;2.92;;;2.00;;
23472;SDS011;11909;52.516;13.564;2022-08-07T04:12:15;3.88;;;1.70;;
23472;SDS011;11909;52.516;13.564;2022-08-07T04:14:42;6.25;;;1.70;;
23472;SDS011;11909;52.516;13.564;2022-08-07T04:17:10;3.08;;;1.60;;
23472;SDS011;11909;52.516;13.564;2022-08-07T04:19:38;2.25;;;1.70;;
23472;SDS011;11909;52.516;13.564;2022-08-07T04:22:05;4.47;;;1.92;;
23472;SDS011;11909;52.516;13.564;2022-08-07T04:24:32;3.97;;;1.63;;
23472;SDS011;11909;52.516;13.564;2022-08-07T04:27:02;3.75;;;1.80;;
23472;SDS011;11909;52.516;13.564;2022-08-07T04:29:29;5.45;;;1.88;;
23472;SDS011;11909;52.516;13.564;2022-08-07T04:31:56;3.90;;;2.15;;
23472;SDS011;11909;52.516;13.564;2022-08-07T04:34:22;2.63;;;1.92;;
23472;SDS011;11909;52.516;13.564;2022-08-07T04:36:49;4.65;;;2.22;;
23472;SDS011;11909;52.516;13.564;2022-08-07T04:39:16;5.97;;;2.22;;
23472;SDS011;11909;52.516;13.564;2022-08-07T04:41:43;3.10;;;2.00;;
23472;SDS011;11909;52.516;13.564;2022-08-07T04:44:11;4.25;;;2.10;;
23472;SDS011;11909;52.516;13.564;2022-08-07T04:46:38;3.70;;;1.95;;
23472;SDS011;11909;52.516;13.564;2022-08-07T04:49:10;3.08;;;1.83;;
23472;SDS011;11909;52.516;13.564;2022-08-07T04:51:43;6.22;;;1.90;;
23472;SDS011;11909;52.516;13.564;2022-08-07T04:54:19;3.92;;;2.10;;
23472;SDS011;11909;52.516;13.564;2022-08-07T04:56:56;3.53;;;2.08;;
23472;SDS011;11909;52.516;13.564;2022-08-07T04:59:29;2.78;;;2.00;;
23472;SDS011;11909;52.516;13.564;2022-08-07T05:02:01;2.38;;;2.00;;
23472;SDS011;11909;52.516;13.564;2022-08-07T05:04:34;5.80;;;2.20;;
23472;SDS011;11909;52.516;13.564;2022-08-07T05:07:09;3.75;;;2.10;;
23472;SDS011;11909;52.516;13.564;2022-08-07T05:09:39;2.97;;;2.20;;
23472;SDS011;11909;52.516;13.564;2022-08-07T05:12:09;4.15;;;2.30;;
23472;SDS011;11909;52.516;13.564;2022-08-07T05:17:09;3.05;;;1.90;;
23472;SDS011;11909;52.516;13.564;2022-08-07T05:19:40;4.10;;;2.35;;
23472;SDS011;11909;52.516;13.564;2022-08-07T05:22:09;4.00;;;2.30;;
23472;SDS011;11909;52.516;13.564;2022-08-07T05:24:38;4.05;;;2.00;;
23472;SDS011;11909;52.516;13.564;2022-08-07T05:27:06;2.20;;;1.90;;
23472;SDS011;11909;52.516;13.564;2022-08-07T05:29:35;4.80;;;1.95;;
23472;SDS011;11909;52.516;13.564;2022-08-07T05:32:04;2.20;;;2.00;;
23472;SDS011;11909;52.516;13.564;2022-08-07T05:34:32;4.15;;;2.00;;
23472;SDS011;11909;52.516;13.564;2022-08-07T05:37:00;4.00;;;2.20;;
23472;SDS011;11909;52.516;13.564;2022-08-07T05:39:28;2.85;;;1.92;;
23472;SDS011;11909;52.516;13.564;2022-08-07T05:41:55;3.05;;;1.92;;
23472;SDS011;11909;52.516;13.564;2022-08-07T05:44:22;3.28;;;1.90;;
23472;SDS011;11909;52.516;13.564;2022-08-07T05:46:49;2.83;;;1.73;;
23472;SDS011;11909;52.516;13.564;2022-08-07T05:49:18;3.53;;;2.03;;
23472;SDS011;11909;52.516;13.564;2022-08-07T05:51:45;2.38;;;1.80;;
23472;SDS011;11909;52.516;13.564;2022-08-07T05:54:12;4.25;;;1.88;;
23472;SDS011;11909;52.516;13.564;2022-08-07T05:56:39;2.45;;;1.60;;
23472;SDS011;11909;52.516;13.564;2022-08-07T05:59:07;5.07;;;2.55;;
23472;SDS011;11909;52.516;13.564;2022-08-07T06:01:41;2.88;;;1.95;;
23472;SDS011;11909;52.516;13.564;2022-08-07T06:04:09;2.78;;;1.75;;
23472;SDS011;11909;52.516;13.564;2022-08-07T06:06:40;3.53;;;2.00;;
23472;SDS011;11909;52.516;13.564;2022-08-07T06:09:08;7.72;;;2.42;;
23472;SDS011;11909;52.516;13.564;2022-08-07T06:11:35;11.45;;;2.38;;
23472;SDS011;11909;52.516;13.564;2022-08-07T06:14:03;4.30;;;1.92;;
23472;SDS011;11909;52.516;13.564;2022-08-07T06:16:31;2.50;;;2.10;;
23472;SDS011;11909;52.516;13.564;2022-08-07T06:18:59;4.60;;;2.30;;
23472;SDS011;11909;52.516;13.564;2022-08-07T06:21:26;3.45;;;2.00;;
23472;SDS011;11909;52.516;13.564;2022-08-07T06:23:55;4.03;;;2.47;;
23472;SDS011;11909;52.516;13.564;2022-08-07T06:26:22;2.33;;;2.00;;
23472;SDS011;11909;52.516;13.564;2022-08-07T06:28:49;2.78;;;2.08;;
23472;SDS011;11909;52.516;13.564;2022-08-07T06:31:17;2.25;;;1.90;;
23472;SDS011;11909;52.516;13.564;2022-08-07T06:33:43;3.92;;;1.90;;
23472;SDS011;11909;52.516;13.564;2022-08-07T06:36:10;3.17;;;2.00;;
23472;SDS011;11909;52.516;13.564;2022-08-07T06:38:37;3.95;;;2.22;;
23472;SDS011;11909;52.516;13.564;2022-08-07T06:41:06;5.75;;;2.28;;
23472;SDS011;11909;52.516;13.564;2022-08-07T06:43:36;5.47;;;2.75;;
23472;SDS011;11909;52.516;13.564;2022-08-07T06:46:05;3.25;;;2.42;;
23472;SDS011;11909;52.516;13.564;2022-08-07T06:48:32;4.90;;;2.05;;
23472;SDS011;11909;52.516;13.564;2022-08-07T06:51:00;3.00;;;2.00;;
23472;SDS011;11909;52.516;13.564;2022-08-07T06:53:31;3.35;;;2.13;;
23472;SDS011;11909;52.516;13.564;2022-08-07T06:56:01;5.22;;;2.13;;
23472;SDS011;11909;52.516;13.564;2022-08-07T06:58:29;4.15;;;2.10;;
23472;SDS011;11909;52.516;13.564;2022-08-07T07:00:57;2.70;;;2.00;;
23472;SDS011;11909;52.516;13.564;2022-08-07T07:03:25;3.28;;;1.88;;
23472;SDS011;11909;52.516;13.564;2022-08-07T07:05:51;3.45;;;1.67;;
23472;SDS011;11909;52.516;13.564;2022-08-07T07:08:23;2.72;;;1.75;;
23472;SDS011;11909;52.516;13.564;2022-08-07T07:10:50;3.15;;;1.85;;
23472;SDS011;11909;52.516;13.564;2022-08-07T07:13:18;3.78;;;1.55;;
23472;SDS011;11909;52.516;13.564;2022-08-07T07:15:54;4.50;;;1.70;;
23472;SDS011;11909;52.516;13.564;2022-08-07T07:18:27;3.42;;;1.73;;
23472;SDS011;11909;52.516;13.564;2022-08-07T07:20:58;4.72;;;1.80;;
23472;SDS011;11909;52.516;13.564;2022-08-07T07:23:28;3.42;;;1.77;;
23472;SDS011;11909;52.516;13.564;2022-08-07T07:25:55;6.05;;;1.90;;
23472;SDS011;11909;52.516;13.564;2022-08-07T07:28:28;5.28;;;1.80;;
23472;SDS011;11909;52.516;13.564;2022-08-07T07:31:00;5.60;;;1.85;;
23472;SDS011;11909;52.516;13.564;2022-08-07T07:33:29;3.58;;;1.40;;
23472;SDS011;11909;52.516;13.564;2022-08-07T07:35:58;2.67;;;2.07;;
23472;SDS011;11909;52.516;13.564;2022-08-07T07:38:26;4.35;;;1.52;;
23472;SDS011;11909;52.516;13.564;2022-08-07T07:40:55;4.13;;;2.10;;
23472;SDS011;11909;52.516;13.564;2022-08-07T07:43:25;4.22;;;1.60;;
23472;SDS011;11909;52.516;13.564;2022-08-07T07:45:54;3.70;;;1.80;;
23472;SDS011;11909;52.516;13.564;2022-08-07T07:48:22;2.40;;;1.73;;
23472;SDS011;11909;52.516;13.564;2022-08-07T07:50:51;5.07;;;1.65;;
23472;SDS011;11909;52.516;13.564;2022-08-07T07:53:21;3.40;;;1.65;;
23472;SDS011;11909;52.516;13.564;2022-08-07T07:55:50;2.85;;;1.30;;
23472;SDS011;11909;52.516;13.564;2022-08-07T07:58:17;3.38;;;1.67;;
23472;SDS011;11909;52.516;13.564;2022-08-07T08:00:45;1.95;;;1.30;;
23472;SDS011;11909;52.516;13.564;2022-08-07T08:03:14;4.72;;;1.45;;
23472;SDS011;11909;52.516;13.564;2022-08-07T08:05:43;2.97;;;1.50;;
23472;SDS011;11909;52.516;13.564;2022-08-07T08:08:10;1.52;;;1.30;;
23472;SDS011;11909;52.516;13.564;2022-08-07T08:10:38;2.97;;;1.40;;
23472;SDS011;11909;52.516;13.564;2022-08-07T08:13:06;1.95;;;1.40;;
23472;SDS011;11909;52.516;13.564;2022-08-07T08:15:35;3.85;;;1.40;;
23472;SDS011;11909;52.516;13.564;2022-08-07T08:18:04;3.58;;;1.50;;
23472;SDS011;11909;52.516;13.564;2022-08-07T08:20:33;3.10;;;1.75;;
23472;SDS011;11909;52.516;13.564;2022-08-07T08:23:03;4.10;;;1.45;;
23472;SDS011;11909;52.516;13.564;2022-08-07T08:25:50;2.83;;;1.60;;
23472;SDS011;11909;52.516;13.564;2022-08-07T08:28:37;3.00;;;1.42;;
23472;SDS011;11909;52.516;13.564;2022-08-07T08:31:06;3.13;;;1.60;;
23472;SDS011;11909;52.516;13.564;2022-08-07T08:33:35;1.85;;;1.40;;
23472;SDS011;11909;52.516;13.564;2022-08-07T08:36:04;3.00;;;1.73;;
23472;SDS011;11909;52.516;13.564;2022-08-07T08:38:36;3.63;;;1.75;;
23472;SDS011;11909;52.516;13.564;2022-08-07T08:41:07;2.45;;;1.50;;
23472;SDS011;11909;52.516;13.564;2022-08-07T08:43:41;3.05;;;1.08;;
23472;SDS011;11909;52.516;13.564;2022-08-07T08:46:15;2.53;;;1.15;;
23472;SDS011;11909;52.516;13.564;2022-08-07T08:48:49;3.50;;;1.40;;
23472;SDS011;11909;52.516;13.564;2022-08-07T08:51:23;2.20;;;1.30;;
23472;SDS011;11909;52.516;13.564;2022-08-07T08:53:55;2.03;;;1.35;;
23472;SDS011;11909;52.516;13.564;2022-08-07T08:56:28;4.28;;;1.50;;
23472;SDS011;11909;52.516;13.564;2022-08-07T08:58:59;2.92;;;1.50;;
23472;SDS011;11909;52.516;13.564;2022-08-07T09:01:30;2.53;;;1.20;;
23472;SDS011;11909;52.516;13.564;2022-08-07T09:04:05;2.13;;;1.35;;
23472;SDS011;11909;52.516;13.564;2022-08-07T09:06:39;3.90;;;1.67;;
23472;SDS011;11909;52.516;13.564;2022-08-07T09:09:20;1.80;;;1.52;;
23472;SDS011;11909;52.516;13.564;2022-08-07T09:11:58;3.13;;;1.30;;
23472;SDS011;11909;52.516;13.564;2022-08-07T09:14:38;3.50;;;1.58;;
23472;SDS011;11909;52.516;13.564;2022-08-07T09:17:14;1.40;;;1.30;;
23472;SDS011;11909;52.516;13.564;2022-08-07T09:19:53;1.52;;;1.10;;
23472;SDS011;11909;52.516;13.564;2022-08-07T09:22:28;2.05;;;1.33;;
23472;SDS011;11909;52.516;13.564;2022-08-07T09:25:08;1.90;;;1.40;;
23472;SDS011;11909;52.516;13.564;2022-08-07T09:27:41;3.10;;;1.23;;
23472;SDS011;11909;52.516;13.564;2022-08-07T09:30:11;3.22;;;1.25;;
23472;SDS011;11909;52.516;13.564;2022-08-07T09:32:49;3.13;;;1.50;;
23472;SDS011;11909;52.516;13.564;2022-08-07T09:35:27;3.55;;;1.20;;
23472;SDS011;11909;52.516;13.564;2022-08-07T09:38:05;3.90;;;1.15;;
23472;SDS011;11909;52.516;13.564;2022-08-07T09:40:46;2.45;;;1.20;;
23472;SDS011;11909;52.516;13.564;2022-08-07T09:43:35;3.53;;;1.70;;
23472;SDS011;11909;52.516;13.564;2022-08-07T09:46:18;3.85;;;1.30;;
23472;SDS011;11909;52.516;13.564;2022-08-07T09:48:57;1.95;;;1.30;;
23472;SDS011;11909;52.516;13.564;2022-08-07T09:51:37;3.35;;;1.20;;
23472;SDS011;11909;52.516;13.564;2022-08-07T09:54:12;3.58;;;1.17;;
23472;SDS011;11909;52.516;13.564;2022-08-07T09:57:03;4.97;;;1.33;;
23472;SDS011;11909;52.516;13.564;2022-08-07T09:59:40;2.45;;;1.50;;
23472;SDS011;11909;52.516;13.564;2022-08-07T10:02:24;2.15;;;1.13;;
23472;SDS011;11909;52.516;13.564;2022-08-07T10:05:24;1.90;;;1.13;;
23472;SDS011;11909;52.516;13.564;2022-08-07T10:08:14;1.85;;;1.30;;
23472;SDS011;11909;52.516;13.564;2022-08-07T10:11:03;4.75;;;1.20;;
23472;SDS011;11909;52.516;13.564;2022-08-07T10:13:42;2.40;;;1.20;;
23472;SDS011;11909;52.516;13.564;2022-08-07T10:16:21;1.90;;;1.20;;
23472;SDS011;11909;52.516;13.564;2022-08-07T10:18:59;3.40;;;1.13;;
23472;SDS011;11909;52.516;13.564;2022-08-07T10:21:44;3.35;;;1.52;;
23472;SDS011;11909;52.516;13.564;2022-08-07T10:27:21;3.38;;;1.27;;
23472;SDS011;11909;52.516;13.564;2022-08-07T10:30:00;3.58;;;1.30;;
23472;SDS011;11909;52.516;13.564;2022-08-07T10:32:45;2.03;;;1.05;;
23472;SDS011;11909;52.516;13.564;2022-08-07T10:35:49;2.13;;;1.38;;
23472;SDS011;11909;52.516;13.564;2022-08-07T10:38:31;1.70;;;1.00;;
23472;SDS011;11909;52.516;13.564;2022-08-07T10:41:08;1.20;;;1.10;;
23472;SDS011;11909;52.516;13.564;2022-08-07T10:43:41;3.88;;;1.23;;
23472;SDS011;11909;52.516;13.564;2022-08-07T10:46:22;3.17;;;1.05;;
23472;SDS011;11909;52.516;13.564;2022-08-07T10:48:55;3.50;;;1.35;;
23472;SDS011;11909;52.516;13.564;2022-08-07T10:51:27;3.40;;;1.50;;
23472;SDS011;11909;52.516;13.564;2022-08-07T10:54:09;3.53;;;1.10;;
23472;SDS011;11909;52.516;13.564;2022-08-07T10:56:42;4.60;;;1.25;;
23472;SDS011;11909;52.516;13.564;2022-08-07T10:59:19;3.42;;;1.40;;
23472;SDS011;11909;52.516;13.564;2022-08-07T11:02:00;2.75;;;1.20;;
23472;SDS011;11909;52.516;13.564;2022-08-07T11:04:34;3.33;;;1.23;;
23472;SDS011;11909;52.516;13.564;2022-08-07T11:07:17;3.35;;;1.33;;
23472;SDS011;11909;52.516;13.564;2022-08-07T11:09:52;2.38;;;1.13;;
23472;SDS011;11909;52.516;13.564;2022-08-07T11:12:24;1.90;;;0.98;;
23472;SDS011;11909;52.516;13.564;2022-08-07T11:14:57;2.13;;;1.10;;
23472;SDS011;11909;52.516;13.564;2022-08-07T11:17:29;3.00;;;1.20;;
23472;SDS011;11909;52.516;13.564;2022-08-07T11:20:05;3.10;;;1.25;;
23472;SDS011;11909;52.516;13.564;2022-08-07T11:22:37;1.98;;;1.17;;
23472;SDS011;11909;52.516;13.564;2022-08-07T11:25:08;3.20;;;1.30;;
23472;SDS011;11909;52.516;13.564;2022-08-07T11:27:43;1.52;;;1.10;;
23472;SDS011;11909;52.516;13.564;2022-08-07T11:30:13;1.65;;;1.00;;
23472;SDS011;11909;52.516;13.564;2022-08-07T11:32:44;2.42;;;1.15;;
23472;SDS011;11909;52.516;13.564;2022-08-07T11:35:17;2.60;;;1.20;;
23472;SDS011;11909;52.516;13.564;2022-08-07T11:37:49;2.50;;;1.27;;
23472;SDS011;11909;52.516;13.564;2022-08-07T11:40:32;2.63;;;0.98;;
23472;SDS011;11909;52.516;13.564;2022-08-07T11:43:07;1.45;;;1.17;;
23472;SDS011;11909;52.516;13.564;2022-08-07T11:45:44;1.48;;;1.13;;
23472;SDS011;11909;52.516;13.564;2022-08-07T11:48:29;2.22;;;1.33;;
23472;SDS011;11909;52.516;13.564;2022-08-07T11:51:14;1.33;;;1.10;;
23472;SDS011;11909;52.516;13.564;2022-08-07T11:53:49;2.50;;;1.33;;
23472;SDS011;11909;52.516;13.564;2022-08-07T11:56:26;3.03;;;1.40;;
23472;SDS011;11909;52.516;13.564;2022-08-07T11:59:08;2.92;;;1.30;;
23472;SDS011;11909;52.516;13.564;2022-08-07T12:01:55;1.83;;;1.27;;
23472;SDS011;11909;52.516;13.564;2022-08-07T12:04:37;2.00;;;1.08;;
23472;SDS011;11909;52.516;13.564;2022-08-07T12:07:22;2.67;;;1.20;;
23472;SDS011;11909;52.516;13.564;2022-08-07T12:09:52;5.67;;;1.50;;
23472;SDS011;11909;52.516;13.564;2022-08-07T12:12:24;1.15;;;0.95;;
23472;SDS011;11909;52.516;13.564;2022-08-07T12:14:54;2.25;;;1.15;;
23472;SDS011;11909;52.516;13.564;2022-08-07T12:17:35;3.50;;;0.98;;
23472;SDS011;11909;52.516;13.564;2022-08-07T12:20:07;1.30;;;1.20;;
23472;SDS011;11909;52.516;13.564;2022-08-07T12:22:39;3.55;;;1.15;;
23472;SDS011;11909;52.516;13.564;2022-08-07T12:25:11;4.47;;;1.10;;
23472;SDS011;11909;52.516;13.564;2022-08-07T12:28:01;1.30;;;1.10;;
23472;SDS011;11909;52.516;13.564;2022-08-07T12:32:59;3.60;;;1.10;;
23472;SDS011;11909;52.516;13.564;2022-08-07T12:35:31;1.75;;;1.17;;
23472;SDS011;11909;52.516;13.564;2022-08-07T12:37:59;2.93;;;1.30;;
23472;SDS011;11909;52.516;13.564;2022-08-07T12:40:29;2.92;;;1.30;;
23472;SDS011;11909;52.516;13.564;2022-08-07T12:42:59;1.80;;;1.20;;
23472;SDS011;11909;52.516;13.564;2022-08-07T12:45:29;1.35;;;0.98;;
23472;SDS011;11909;52.516;13.564;2022-08-07T12:48:01;2.05;;;1.00;;
23472;SDS011;11909;52.516;13.564;2022-08-07T12:50:34;2.55;;;1.20;;
23472;SDS011;11909;52.516;13.564;2022-08-07T12:53:12;2.45;;;0.95;;
23472;SDS011;11909;52.516;13.564;2022-08-07T12:55:45;1.73;;;1.10;;
23472;SDS011;11909;52.516;13.564;2022-08-07T12:58:15;2.90;;;1.10;;
23472;SDS011;11909;52.516;13.564;2022-08-07T13:00:46;3.80;;;1.23;;
23472;SDS011;11909;52.516;13.564;2022-08-07T13:03:30;2.45;;;1.15;;
23472;SDS011;11909;52.516;13.564;2022-08-07T13:06:16;3.22;;;1.17;;
23472;SDS011;11909;52.516;13.564;2022-08-07T13:08:55;1.58;;;1.17;;
23472;SDS011;11909;52.516;13.564;2022-08-07T13:11:35;2.55;;;1.13;;
23472;SDS011;11909;52.516;13.564;2022-08-07T13:14:15;5.45;;;1.70;;
23472;SDS011;11909;52.516;13.564;2022-08-07T13:16:51;1.80;;;1.20;;
23472;SDS011;11909;52.516;13.564;2022-08-07T13:19:26;2.63;;;1.23;;
23472;SDS011;11909;52.516;13.564;2022-08-07T13:22:01;2.40;;;1.10;;
23472;SDS011;11909;52.516;13.564;2022-08-07T13:24:41;1.48;;;1.00;;
23472;SDS011;11909;52.516;13.564;2022-08-07T13:27:12;1.90;;;1.00;;
23472;SDS011;11909;52.516;13.564;2022-08-07T13:29:46;1.38;;;1.20;;
23472;SDS011;11909;52.516;13.564;2022-08-07T13:32:17;2.25;;;1.23;;
23472;SDS011;11909;52.516;13.564;2022-08-07T13:34:50;2.42;;;1.10;;
23472;SDS011;11909;52.516;13.564;2022-08-07T13:37:24;2.80;;;1.20;;
23472;SDS011;11909;52.516;13.564;2022-08-07T13:40:02;3.67;;;1.27;;
23472;SDS011;11909;52.516;13.564;2022-08-07T13:42:38;2.53;;;1.30;;
23472;SDS011;11909;52.516;13.564;2022-08-07T13:45:06;2.35;;;1.40;;
23472;SDS011;11909;52.516;13.564;2022-08-07T13:47:34;1.45;;;1.10;;
23472;SDS011;11909;52.516;13.564;2022-08-07T13:50:03;3.30;;;1.20;;
23472;SDS011;11909;52.516;13.564;2022-08-07T13:52:35;2.17;;;1.15;;
23472;SDS011;11909;52.516;13.564;2022-08-07T13:55:04;2.22;;;1.38;;
23472;SDS011;11909;52.516;13.564;2022-08-07T13:57:32;3.63;;;1.30;;
23472;SDS011;11909;52.516;13.564;2022-08-07T14:00:00;3.72;;;1.20;;
23472;SDS011;11909;52.516;13.564;2022-08-07T14:02:29;1.57;;;1.20;;
23472;SDS011;11909;52.516;13.564;2022-08-07T14:05:00;7.80;;;1.23;;
23472;SDS011;11909;52.516;13.564;2022-08-07T14:07:29;1.80;;;1.30;;
23472;SDS011;11909;52.516;13.564;2022-08-07T14:09:59;2.03;;;1.13;;
23472;SDS011;11909;52.516;13.564;2022-08-07T14:12:29;2.17;;;1.25;;
23472;SDS011;11909;52.516;13.564;2022-08-07T14:15:02;1.42;;;1.20;;
23472;SDS011;11909;52.516;13.564;2022-08-07T14:17:33;3.45;;;1.10;;
23472;SDS011;11909;52.516;13.564;2022-08-07T14:20:03;3.25;;;1.27;;
23472;SDS011;11909;52.516;13.564;2022-08-07T14:22:34;6.43;;;1.30;;
23472;SDS011;11909;52.516;13.564;2022-08-07T14:25:08;1.92;;;0.98;;
23472;SDS011;11909;52.516;13.564;2022-08-07T14:27:39;3.95;;;1.25;;
23472;SDS011;11909;52.516;13.564;2022-08-07T14:30:08;3.00;;;1.23;;
23472;SDS011;11909;52.516;13.564;2022-08-07T14:32:39;1.95;;;1.30;;
23472;SDS011;11909;52.516;13.564;2022-08-07T14:35:09;3.42;;;1.10;;
23472;SDS011;11909;52.516;13.564;2022-08-07T14:37:41;1.98;;;1.00;;
23472;SDS011;11909;52.516;13.564;2022-08-07T14:40:13;1.85;;;1.30;;
23472;SDS011;11909;52.516;13.564;2022-08-07T14:42:41;1.85;;;1.05;;
23472;SDS011;11909;52.516;13.564;2022-08-07T14:45:09;1.95;;;1.30;;
23472;SDS011;11909;52.516;13.564;2022-08-07T14:47:38;5.20;;;1.05;;
23472;SDS011;11909;52.516;13.564;2022-08-07T14:50:06;3.08;;;1.27;;
23472;SDS011;11909;52.516;13.564;2022-08-07T14:52:42;4.32;;;1.73;;
23472;SDS011;11909;52.516;13.564;2022-08-07T14:55:13;2.03;;;1.50;;
23472;SDS011;11909;52.516;13.564;2022-08-07T14:57:40;1.63;;;1.30;;
23472;SDS011;11909;52.516;13.564;2022-08-07T15:00:09;3.05;;;1.20;;
23472;SDS011;11909;52.516;13.564;2022-08-07T15:02:36;1.33;;;1.00;;
23472;SDS011;11909;52.516;13.564;2022-08-07T15:05:04;3.13;;;1.30;;
23472;SDS011;11909;52.516;13.564;2022-08-07T15:07:33;4.30;;;1.38;;
23472;SDS011;11909;52.516;13.564;2022-08-07T15:10:00;4.03;;;1.40;;